Time;durP1;ratioP1;P1;durP2;ratioP2;P2;SDS_P1;SDS_P2;PMS_P1;PMS_P2;Temp;Humidity;BMP_temperature;BMP_pressure;BME280_temperature;BME280_humidity;BME280_pressure;Samples;Min_cycle;Max_cycle;Signal;HPM_P1;HPM_P2
2024/03/10 00:03:40;;;;;;;35.70;28.60;;;;;;;;;;103576;1291;545039;-71
2024/03/10 00:07:15;;;;;;;35.90;27.50;;;;;;;;;;103690;1291;545412;-71
2024/03/10 00:10:53;;;;;;;34.50;25.90;;;;;;;;;;103506;1289;545826;-69
2024/03/10 00:14:29;;;;;;;33.30;24.90;;;;;;;;;;103575;1292;545518;-70
2024/03/10 00:18:08;;;;;;;30.50;24.00;;;;;;;;;;103755;1291;544795;-71
2024/03/10 00:21:44;;;;;;;30.30;23.70;;;;;;;;;;103827;1289;545917;-70
2024/03/10 00:25:22;;;;;;;28.70;22.60;;;;;;;;;;103708;1291;545748;-70
2024/03/10 00:28:59;;;;;;;28.00;21.50;;;;;;;;;;103708;1289;544744;-70
2024/03/10 00:32:37;;;;;;;27.00;19.90;;;;;;;;;;103607;1289;545674;-70
2024/03/10 00:36:14;;;;;;;27.10;21.10;;;;;;;;;;103634;1290;545152;-70
2024/03/10 00:39:51;;;;;;;29.00;22.20;;;;;;;;;;103616;1291;544984;-72
2024/03/10 00:43:29;;;;;;;27.40;21.10;;;;;;;;;;103541;1289;544875;-70
2024/03/10 00:47:06;;;;;;;25.60;18.90;;;;;;;;;;103535;1292;545642;-71
2024/03/10 00:50:46;;;;;;;24.10;19.00;;;;;;;;;;103576;1292;545743;-70
2024/03/10 00:54:22;;;;;;;25.20;19.80;;;;;;;;;;103624;1303;544973;-71
2024/03/10 00:57:58;;;;;;;26.30;20.50;;;;;;;;;;103369;1295;544739;-70
2024/03/10 01:01:39;;;;;;;26.30;19.90;;;;;;;;;;104217;1285;545568;-70
2024/03/10 01:05:13;;;;;;;23.60;17.50;;;;;;;;;;103563;1293;544817;-71
2024/03/10 01:08:51;;;;;;;23.30;17.90;;;;;;;;;;103533;1291;544986;-71
2024/03/10 01:12:24;;;;;;;23.80;18.90;;;;;;;;;;104046;1286;544772;-70
2024/03/10 01:16:06;;;;;;;28.70;20.70;;;;;;;;;;103555;1291;545729;-71
2024/03/10 01:19:48;;;;;;;26.40;20.10;;;;;;;;;;103523;1292;545555;-71
2024/03/10 01:23:20;;;;;;;23.30;17.10;;;;;;;;;;103541;1291;544998;-70
2024/03/10 01:26:59;;;;;;;22.00;16.20;;;;;;;;;;103786;1289;545413;-71
2024/03/10 01:30:38;;;;;;;24.20;16.90;;;;;;;;;;103657;1295;546178;-70
2024/03/10 01:34:14;;;;;;;24.80;18.50;;;;;;;;;;103731;1292;544981;-71
2024/03/10 01:37:52;;;;;;;25.10;18.80;;;;;;;;;;103706;1289;545435;-71
2024/03/10 01:41:25;;;;;;;23.80;16.60;;;;;;;;;;103775;1289;545305;-70
2024/03/10 01:45:07;;;;;;;23.80;16.70;;;;;;;;;;103482;1298;546021;-71
2024/03/10 01:48:46;;;;;;;25.10;18.10;;;;;;;;;;103680;1292;545167;-68
2024/03/10 01:52:27;;;;;;;24.80;18.60;;;;;;;;;;103576;1291;545831;-71
2024/03/10 01:55:59;;;;;;;24.30;18.80;;;;;;;;;;103689;1288;544965;-70
2024/03/10 01:59:38;;;;;;;23.50;16.00;;;;;;;;;;103658;1291;545424;-70
2024/03/10 02:03:13;;;;;;;21.20;15.50;;;;;;;;;;103571;1292;545515;-71
2024/03/10 02:06:53;;;;;;;20.80;15.20;;;;;;;;;;103563;1297;545711;-71
2024/03/10 02:10:28;;;;;;;22.60;16.80;;;;;;;;;;103612;1289;544979;-70
2024/03/10 02:14:08;;;;;;;22.10;16.40;;;;;;;;;;103264;1296;544762;-70
2024/03/10 02:17:44;;;;;;;22.50;16.30;;;;;;;;;;103667;1289;545033;-68
2024/03/10 02:21:21;;;;;;;20.40;14.90;;;;;;;;;;103592;1292;545402;-69
2024/03/10 02:24:59;;;;;;;21.20;15.70;;;;;;;;;;103656;1291;544945;-69
2024/03/10 02:28:46;;;;;;;22.30;16.40;;;;;;;;;;103764;1289;544973;-70
2024/03/10 02:50:20;;;;;;;20.40;15.20;;;;;;;;;;103562;1289;545533;-71
2024/03/10 02:53:57;;;;;;;20.70;14.70;;;;;;;;;;103781;1289;544986;-71
2024/03/10 02:57:35;;;;;;;20.20;15.00;;;;;;;;;;104455;1280;544998;-70
2024/03/10 03:01:16;;;;;;;22.50;15.70;;;;;;;;;;103625;1290;545129;-69
2024/03/10 03:04:51;;;;;;;21.20;15.80;;;;;;;;;;103826;1288;544854;-71
2024/03/10 03:08:27;;;;;;;20.70;14.90;;;;;;;;;;103626;1291;545115;-70
2024/03/10 03:12:05;;;;;;;20.40;15.50;;;;;;;;;;103406;1294;545190;-69
2024/03/10 03:15:42;;;;;;;21.80;16.40;;;;;;;;;;103648;1291;544855;-71
2024/03/10 03:19:20;;;;;;;23.30;17.00;;;;;;;;;;103761;1291;544973;-71
2024/03/10 03:22:53;;;;;;;22.70;15.90;;;;;;;;;;103835;1292;544994;-72
2024/03/10 03:26:38;;;;;;;21.10;14.70;;;;;;;;;;103883;1288;544998;-70
2024/03/10 03:30:12;;;;;;;21.50;15.30;;;;;;;;;;103381;1297;544829;-70
2024/03/10 03:33:49;;;;;;;22.80;16.60;;;;;;;;;;103588;1289;544967;-70
2024/03/10 03:37:27;;;;;;;22.50;16.90;;;;;;;;;;103698;1289;544901;-70
2024/03/10 03:41:06;;;;;;;21.90;15.40;;;;;;;;;;103610;1294;544967;-70
2024/03/10 03:44:44;;;;;;;23.10;15.80;;;;;;;;;;103548;1295;544888;-72
2024/03/10 03:48:20;;;;;;;22.80;15.10;;;;;;;;;;103553;1290;544904;-69
2024/03/10 03:51:56;;;;;;;22.40;16.80;;;;;;;;;;103618;1291;545504;-70
2024/03/10 03:55:34;;;;;;;23.10;17.20;;;;;;;;;;103582;1289;544869;-71
2024/03/10 03:59:12;;;;;;;21.70;15.90;;;;;;;;;;103635;1291;545788;-70
2024/03/10 04:02:49;;;;;;;21.10;14.60;;;;;;;;;;103494;1294;544770;-71
2024/03/10 04:06:28;;;;;;;22.80;16.00;;;;;;;;;;103611;1291;544782;-70
2024/03/10 04:10:06;;;;;;;23.70;16.50;;;;;;;;;;103558;1290;545929;-71
2024/03/10 04:13:41;;;;;;;22.30;17.00;;;;;;;;;;103612;1289;545565;-71
2024/03/10 04:17:19;;;;;;;21.70;15.90;;;;;;;;;;103400;1293;544766;-69
2024/03/10 04:20:56;;;;;;;21.50;15.20;;;;;;;;;;103820;1289;544759;-69
2024/03/10 04:24:34;;;;;;;21.60;16.40;;;;;;;;;;103551;1290;544848;-71
2024/03/10 04:28:12;;;;;;;22.40;16.90;;;;;;;;;;103583;1292;547008;-70
2024/03/10 04:31:49;;;;;;;23.60;16.40;;;;;;;;;;103605;1292;545873;-71
2024/03/10 04:35:26;;;;;;;20.70;15.10;;;;;;;;;;103671;1290;545658;-71
2024/03/10 04:39:05;;;;;;;22.00;15.30;;;;;;;;;;103508;1295;545273;-71
2024/03/10 04:42:47;;;;;;;23.00;16.80;;;;;;;;;;103615;1292;548098;-71
2024/03/10 04:46:19;;;;;;;22.80;16.50;;;;;;;;;;103679;1289;545182;-72
2024/03/10 04:49:55;;;;;;;20.60;15.00;;;;;;;;;;103703;1289;545077;-71
2024/03/10 04:53:35;;;;;;;24.10;15.00;;;;;;;;;;103709;1299;545397;-71
2024/03/10 04:57:11;;;;;;;24.20;16.40;;;;;;;;;;103640;1288;545098;-70
2024/03/10 05:00:45;;;;;;;22.10;15.80;;;;;;;;;;103537;1292;545786;-70
2024/03/10 05:04:26;;;;;;;22.50;17.30;;;;;;;;;;103610;1292;546329;-69
2024/03/10 05:08:00;;;;;;;24.00;16.20;;;;;;;;;;105782;1289;544877;-70
2024/03/10 05:11:37;;;;;;;23.30;15.80;;;;;;;;;;103448;1292;545004;-68
2024/03/10 05:15:19;;;;;;;21.80;15.70;;;;;;;;;;103598;1290;544792;-71
2024/03/10 05:18:56;;;;;;;20.90;15.70;;;;;;;;;;103515;1291;545285;-69
2024/03/10 05:22:35;;;;;;;24.70;18.10;;;;;;;;;;104492;1285;545232;-70
2024/03/10 05:26:11;;;;;;;23.10;16.70;;;;;;;;;;103661;1288;545108;-70
2024/03/10 05:29:52;;;;;;;22.40;15.80;;;;;;;;;;103484;1295;545737;-71
2024/03/10 05:33:26;;;;;;;21.20;16.20;;;;;;;;;;104148;1285;544894;-71
2024/03/10 05:37:04;;;;;;;23.70;17.70;;;;;;;;;;103596;1290;544786;-71
2024/03/10 05:40:41;;;;;;;22.60;16.00;;;;;;;;;;103785;1289;545104;-71
2024/03/10 05:44:20;;;;;;;22.70;15.80;;;;;;;;;;103387;1294;544871;-71
2024/03/10 05:47:57;;;;;;;21.10;15.20;;;;;;;;;;104552;1281;544797;-69
2024/03/10 05:51:34;;;;;;;22.40;16.00;;;;;;;;;;103562;1292;544926;-69
2024/03/10 05:55:10;;;;;;;22.30;15.80;;;;;;;;;;103698;1294;544749;-70
2024/03/10 05:58:50;;;;;;;21.90;14.80;;;;;;;;;;103552;1294;545006;-71
2024/03/10 06:02:25;;;;;;;22.50;15.30;;;;;;;;;;103526;1292;544936;-69
2024/03/10 06:06:05;;;;;;;23.50;16.80;;;;;;;;;;103702;1292;544981;-71
2024/03/10 06:09:37;;;;;;;22.20;15.10;;;;;;;;;;103667;1289;545481;-70
2024/03/10 06:13:20;;;;;;;20.00;14.10;;;;;;;;;;103736;1291;544936;-71
2024/03/10 06:16:56;;;;;;;23.20;15.20;;;;;;;;;;103660;1290;544843;-70
2024/03/10 06:27:56;;;;;;;20.00;14.20;;;;;;;;;;103663;1292;548100;-70
2024/03/10 06:31:21;;;;;;;18.70;13.90;;;;;;;;;;103618;1289;544940;-69
2024/03/10 06:35:06;;;;;;;21.90;14.90;;;;;;;;;;103589;1291;544954;-70
2024/03/10 06:38:41;;;;;;;21.30;15.40;;;;;;;;;;103702;1292;545644;-71
2024/03/10 06:42:15;;;;;;;21.50;14.60;;;;;;;;;;103612;1289;545082;-70
2024/03/10 06:45:55;;;;;;;18.60;13.10;;;;;;;;;;103744;1294;545063;-71
2024/03/10 06:49:33;;;;;;;18.90;14.10;;;;;;;;;;103665;1291;544787;-71
2024/03/10 06:53:10;;;;;;;20.80;15.10;;;;;;;;;;103354;1294;545584;-71
2024/03/10 06:56:48;;;;;;;19.70;14.40;;;;;;;;;;103710;1289;545802;-71
2024/03/10 07:00:25;;;;;;;21.00;13.90;;;;;;;;;;103615;1290;545911;-70
2024/03/10 07:04:06;;;;;;;18.50;13.10;;;;;;;;;;103717;1293;545501;-70
2024/03/10 07:07:40;;;;;;;20.60;14.80;;;;;;;;;;103700;1290;545420;-70
2024/03/10 07:11:18;;;;;;;20.10;15.00;;;;;;;;;;103580;1292;545899;-70
2024/03/10 07:15:24;;;;;;;19.40;14.00;;;;;;;;;;103951;1289;545046;-70
2024/03/10 07:18:33;;;;;;;19.60;13.60;;;;;;;;;;103600;1292;544967;-70
2024/03/10 07:22:10;;;;;;;20.20;14.10;;;;;;;;;;103616;1291;544777;-70
2024/03/10 07:25:47;;;;;;;21.20;14.40;;;;;;;;;;103538;1289;545318;-69
2024/03/10 07:29:21;;;;;;;19.70;14.50;;;;;;;;;;103729;1303;545212;-69
2024/03/10 07:33:03;;;;;;;19.30;13.50;;;;;;;;;;103566;1291;544901;-71
2024/03/10 07:36:40;;;;;;;18.40;13.10;;;;;;;;;;103666;1290;545073;-70
2024/03/10 07:40:19;;;;;;;19.30;14.00;;;;;;;;;;104195;1287;546795;-71
2024/03/10 07:43:55;;;;;;;19.80;14.40;;;;;;;;;;103685;1290;544867;-70
2024/03/10 07:47:33;;;;;;;20.50;14.50;;;;;;;;;;103586;1292;545030;-70
2024/03/10 07:51:10;;;;;;;20.80;14.00;;;;;;;;;;103605;1294;544769;-70
2024/03/10 07:54:45;;;;;;;19.20;13.10;;;;;;;;;;103312;1290;545806;-69
2024/03/10 07:58:27;;;;;;;19.90;13.40;;;;;;;;;;105062;1291;545514;-70
2024/03/10 08:01:59;;;;;;;19.70;13.90;;;;;;;;;;103654;1290;545113;-67
2024/03/10 08:05:40;;;;;;;19.20;14.00;;;;;;;;;;103498;1291;544987;-71
2024/03/10 08:09:19;;;;;;;19.60;13.70;;;;;;;;;;103651;1291;545425;-71
2024/03/10 08:12:55;;;;;;;17.30;12.10;;;;;;;;;;105357;1295;544766;-70
2024/03/10 08:16:28;;;;;;;20.80;13.20;;;;;;;;;;103580;1290;544986;-70
2024/03/10 08:20:13;;;;;;;19.40;13.50;;;;;;;;;;104251;1282;544731;-71
2024/03/10 08:23:48;;;;;;;18.20;13.50;;;;;;;;;;103537;1289;544989;-71
2024/03/10 08:27:31;;;;;;;18.80;13.60;;;;;;;;;;103363;1292;548050;-71
2024/03/10 08:31:04;;;;;;;18.20;12.70;;;;;;;;;;103680;1292;545895;-70
2024/03/10 08:34:40;;;;;;;18.40;13.10;;;;;;;;;;103444;1295;544917;-70
2024/03/10 08:38:18;;;;;;;19.10;13.80;;;;;;;;;;103530;1291;544976;-71
2024/03/10 08:41:55;;;;;;;17.70;13.20;;;;;;;;;;103627;1292;544987;-71
2024/03/10 08:45:33;;;;;;;20.00;13.50;;;;;;;;;;103551;1289;545686;-71
2024/03/10 08:49:09;;;;;;;18.30;13.30;;;;;;;;;;103635;1291;545041;-71
2024/03/10 08:52:43;;;;;;;17.40;12.50;;;;;;;;;;103538;1296;545427;-71
2024/03/10 08:56:40;;;;;;;18.60;12.70;;;;;;;;;;103363;1298;544854;-70
2024/03/10 09:00:02;;;;;;;18.50;13.10;;;;;;;;;;103550;1291;546221;-71
2024/03/10 09:03:38;;;;;;;17.90;12.30;;;;;;;;;;103671;1295;545931;-70
2024/03/10 09:07:16;;;;;;;18.20;12.20;;;;;;;;;;103345;1292;544971;-70
2024/03/10 09:10:55;;;;;;;17.70;12.60;;;;;;;;;;103679;1295;544936;-70
2024/03/10 09:14:32;;;;;;;18.20;12.80;;;;;;;;;;103679;1292;545007;-72
2024/03/10 09:18:08;;;;;;;18.80;13.40;;;;;;;;;;104307;1286;544830;-71
2024/03/10 09:21:47;;;;;;;17.90;13.00;;;;;;;;;;103747;1292;544915;-71
2024/03/10 09:25:23;;;;;;;19.20;13.40;;;;;;;;;;103526;1289;545676;-70
2024/03/10 09:29:07;;;;;;;21.80;13.60;;;;;;;;;;103360;1292;548835;-71
2024/03/10 09:32:58;;;;;;;20.50;14.00;;;;;;;;;;103698;1290;547924;-72
2024/03/10 09:36:17;;;;;;;19.70;14.40;;;;;;;;;;103732;1291;545074;-69
2024/03/10 09:39:53;;;;;;;19.50;14.00;;;;;;;;;;103631;1292;544822;-71
2024/03/10 09:43:33;;;;;;;19.70;14.20;;;;;;;;;;103575;1292;545229;-72
2024/03/10 09:47:08;;;;;;;19.90;12.90;;;;;;;;;;103493;1295;545013;-71
2024/03/10 09:50:51;;;;;;;19.10;12.50;;;;;;;;;;103564;1293;545494;-71
2024/03/10 09:54:23;;;;;;;16.70;12.10;;;;;;;;;;103655;1296;544961;-69
2024/03/10 09:58:06;;;;;;;16.50;11.90;;;;;;;;;;103444;1293;544981;-69
2024/03/10 10:01:38;;;;;;;17.50;12.10;;;;;;;;;;103742;1291;545540;-70
2024/03/10 10:05:24;;;;;;;17.30;11.40;;;;;;;;;;103501;1294;544991;-72
2024/03/10 10:08:58;;;;;;;15.90;11.90;;;;;;;;;;103777;1289;545580;-71
2024/03/10 10:12:31;;;;;;;16.80;11.30;;;;;;;;;;103633;1290;545474;-70
2024/03/10 10:16:10;;;;;;;16.50;11.40;;;;;;;;;;103673;1289;545737;-71
2024/03/10 10:19:42;;;;;;;18.30;11.70;;;;;;;;;;103512;1293;546314;-70
2024/03/10 10:23:23;;;;;;;16.50;12.10;;;;;;;;;;103756;1295;545589;-72
2024/03/10 10:27:04;;;;;;;15.90;11.20;;;;;;;;;;103628;1292;545618;-71
2024/03/10 10:30:40;;;;;;;18.70;12.80;;;;;;;;;;103405;1292;544875;-71
2024/03/10 10:34:17;;;;;;;16.20;11.70;;;;;;;;;;103662;1292;545839;-72
2024/03/10 10:37:52;;;;;;;15.50;11.10;;;;;;;;;;103615;1294;545482;-70
2024/03/10 10:41:30;;;;;;;15.70;11.20;;;;;;;;;;103700;1289;545327;-70
2024/03/10 10:45:09;;;;;;;16.90;11.40;;;;;;;;;;103477;1294;545699;-72
2024/03/10 10:48:51;;;;;;;16.80;11.00;;;;;;;;;;103670;1292;547980;-71
2024/03/10 10:52:22;;;;;;;16.90;11.30;;;;;;;;;;104240;1283;544827;-71
2024/03/10 10:56:08;;;;;;;18.50;12.00;;;;;;;;;;103474;1293;547821;-74
2024/03/10 10:59:40;;;;;;;17.70;11.20;;;;;;;;;;103737;1290;544998;-70
2024/03/10 11:03:16;;;;;;;15.70;11.70;;;;;;;;;;103639;1291;545232;-70
2024/03/10 11:06:54;;;;;;;15.70;11.20;;;;;;;;;;103933;1295;545163;-72
2024/03/10 11:10:42;;;;;;;16.00;11.00;;;;;;;;;;103646;1289;544991;-70
2024/03/10 11:14:09;;;;;;;16.80;11.50;;;;;;;;;;103494;1291;544812;-70
2024/03/10 11:17:46;;;;;;;15.40;10.80;;;;;;;;;;103718;1289;544745;-71
2024/03/10 11:21:24;;;;;;;15.70;11.40;;;;;;;;;;103678;1292;544990;-70
2024/03/10 11:25:08;;;;;;;15.90;11.50;;;;;;;;;;103692;1290;544994;-71
2024/03/10 11:28:49;;;;;;;15.60;11.20;;;;;;;;;;103753;1290;545476;-69
2024/03/10 11:32:34;;;;;;;16.00;11.80;;;;;;;;;;103679;1295;544746;-70
2024/03/10 11:35:53;;;;;;;15.70;10.80;;;;;;;;;;103896;1290;544952;-70
2024/03/10 11:39:31;;;;;;;15.40;10.60;;;;;;;;;;103651;1289;544943;-68
2024/03/10 11:43:08;;;;;;;16.80;11.50;;;;;;;;;;103699;1291;545717;-70
2024/03/10 11:46:43;;;;;;;15.60;10.60;;;;;;;;;;103503;1295;545066;-70
2024/03/10 11:50:22;;;;;;;16.60;11.30;;;;;;;;;;103426;1294;544817;-69
2024/03/10 11:54:03;;;;;;;17.10;11.70;;;;;;;;;;103674;1289;545355;-71
2024/03/10 11:57:33;;;;;;;16.40;11.50;;;;;;;;;;103903;1289;544958;-70
2024/03/10 12:01:18;;;;;;;15.80;11.30;;;;;;;;;;103825;1292;545001;-71
2024/03/10 12:04:54;;;;;;;17.10;11.50;;;;;;;;;;103566;1290;545625;-71
2024/03/10 12:08:31;;;;;;;16.40;11.70;;;;;;;;;;103682;1289;545765;-68
2024/03/10 12:12:13;;;;;;;15.70;11.20;;;;;;;;;;104379;1285;545457;-71
2024/03/10 12:15:49;;;;;;;17.10;11.40;;;;;;;;;;103760;1291;545217;-71
2024/03/10 12:19:36;;;;;;;18.00;11.90;;;;;;;;;;103744;1296;545557;-69
2024/03/10 12:23:29;;;;;;;17.70;11.90;;;;;;;;;;103626;1295;544752;-71
2024/03/10 12:26:37;;;;;;;17.70;12.10;;;;;;;;;;103708;1290;545068;-72
2024/03/10 12:30:12;;;;;;;19.10;12.50;;;;;;;;;;103698;1289;544957;-70
2024/03/10 12:33:49;;;;;;;19.20;12.90;;;;;;;;;;103408;1297;545694;-71
2024/03/10 12:37:30;;;;;;;18.20;13.00;;;;;;;;;;103773;1288;545955;-71
2024/03/10 12:41:23;;;;;;;19.20;13.30;;;;;;;;;;103428;1295;544878;-71
2024/03/10 12:44:45;;;;;;;18.90;12.60;;;;;;;;;;103663;1302;544954;-69
2024/03/10 12:48:27;;;;;;;18.30;12.40;;;;;;;;;;103715;1290;544973;-69
2024/03/10 12:51:59;;;;;;;18.60;12.90;;;;;;;;;;103780;1289;545188;-71
2024/03/10 12:55:36;;;;;;;18.20;12.80;;;;;;;;;;103430;1298;545279;-72
2024/03/10 12:59:15;;;;;;;18.80;13.40;;;;;;;;;;103586;1293;545165;-70
2024/03/10 13:02:51;;;;;;;17.30;12.60;;;;;;;;;;103626;1295;545039;-71
2024/03/10 13:06:30;;;;;;;17.60;12.50;;;;;;;;;;103718;1292;544884;-70
2024/03/10 13:10:12;;;;;;;17.80;11.60;;;;;;;;;;103427;1292;548436;-70
2024/03/10 13:13:41;;;;;;;17.00;10.30;;;;;;;;;;103856;1289;545523;-71
2024/03/10 13:17:21;;;;;;;17.60;11.80;;;;;;;;;;103680;1292;544894;-70
2024/03/10 13:20:59;;;;;;;18.30;12.30;;;;;;;;;;104048;1290;544996;-71
2024/03/10 13:24:32;;;;;;;17.40;11.80;;;;;;;;;;104015;1286;545030;-71
2024/03/10 13:28:16;;;;;;;17.30;11.20;;;;;;;;;;103677;1290;544766;-70
2024/03/10 13:31:57;;;;;;;16.20;11.20;;;;;;;;;;103618;1292;547822;-72
2024/03/10 13:35:29;;;;;;;16.40;10.50;;;;;;;;;;103879;1288;544759;-71
2024/03/10 13:39:10;;;;;;;16.10;10.30;;;;;;;;;;103469;1298;544985;-71
2024/03/10 13:42:47;;;;;;;16.30;10.40;;;;;;;;;;104010;1289;545288;-72
2024/03/10 13:46:21;;;;;;;14.80;10.20;;;;;;;;;;103708;1291;545153;-71
2024/03/10 13:50:02;;;;;;;16.40;11.00;;;;;;;;;;103548;1303;545001;-70
2024/03/10 13:53:35;;;;;;;15.40;10.20;;;;;;;;;;103725;1292;545895;-71
2024/03/10 13:57:14;;;;;;;16.30;10.20;;;;;;;;;;103550;1298;544963;-72
2024/03/10 14:00:51;;;;;;;15.80;10.40;;;;;;;;;;103707;1292;545403;-71
2024/03/10 14:04:28;;;;;;;14.40;9.40;;;;;;;;;;103813;1289;544949;-72
2024/03/10 14:08:06;;;;;;;14.60;9.60;;;;;;;;;;103552;1295;546089;-70
2024/03/10 14:11:45;;;;;;;16.80;9.90;;;;;;;;;;103500;1291;545063;-72
2024/03/10 14:15:21;;;;;;;14.70;9.60;;;;;;;;;;103515;1291;544995;-70
2024/03/10 14:19:00;;;;;;;15.70;10.20;;;;;;;;;;103588;1292;544769;-70
2024/03/10 14:22:36;;;;;;;14.70;9.40;;;;;;;;;;103699;1292;545003;-71
2024/03/10 14:26:14;;;;;;;13.20;8.80;;;;;;;;;;103674;1289;544878;-69
2024/03/10 14:29:50;;;;;;;13.60;8.80;;;;;;;;;;103385;1295;545166;-72
2024/03/10 14:33:38;;;;;;;12.60;8.50;;;;;;;;;;103746;1294;544999;-72
2024/03/10 14:37:05;;;;;;;13.10;8.60;;;;;;;;;;103618;1289;545058;-71
2024/03/10 14:40:43;;;;;;;26.40;18.50;;;;;;;;;;103457;1295;545138;-70
2024/03/10 14:44:46;;;;;;;17.00;11.00;;;;;;;;;;103682;1294;549268;-71
2024/03/10 14:47:58;;;;;;;14.40;9.70;;;;;;;;;;103644;1296;545009;-70
2024/03/10 14:51:35;;;;;;;12.50;8.30;;;;;;;;;;103579;1289;544873;-71
2024/03/10 14:55:14;;;;;;;14.10;8.90;;;;;;;;;;103738;1290;545955;-71
2024/03/10 14:58:50;;;;;;;12.60;8.30;;;;;;;;;;103630;1289;545038;-71
2024/03/10 15:02:29;;;;;;;14.30;8.40;;;;;;;;;;103598;1291;544794;-71
2024/03/10 15:06:05;;;;;;;13.60;8.50;;;;;;;;;;103465;1295;545605;-71
2024/03/10 15:09:45;;;;;;;13.00;8.00;;;;;;;;;;103487;1289;545012;-71
2024/03/10 15:13:22;;;;;;;10.90;6.60;;;;;;;;;;103553;1291;544974;-69
2024/03/10 15:16:59;;;;;;;12.40;7.50;;;;;;;;;;103528;1293;544816;-72
2024/03/10 15:20:39;;;;;;;11.60;7.40;;;;;;;;;;103649;1291;545377;-71
2024/03/10 15:24:09;;;;;;;12.20;7.10;;;;;;;;;;103741;1289;545038;-69
2024/03/10 15:27:50;;;;;;;11.90;7.30;;;;;;;;;;103311;1296;544810;-69
2024/03/10 15:31:28;;;;;;;12.50;7.10;;;;;;;;;;103801;1295;544994;-70
2024/03/10 15:35:08;;;;;;;10.70;6.60;;;;;;;;;;104168;1286;545150;-69
2024/03/10 15:38:42;;;;;;;11.60;6.60;;;;;;;;;;103897;1289;544994;-70
2024/03/10 15:42:19;;;;;;;11.00;6.20;;;;;;;;;;104204;1282;545604;-71
2024/03/10 15:46:00;;;;;;;10.60;6.30;;;;;;;;;;103523;1291;545665;-71
2024/03/10 15:49:36;;;;;;;11.70;6.80;;;;;;;;;;103235;1293;544842;-71
2024/03/10 15:53:12;;;;;;;11.10;6.50;;;;;;;;;;103574;1291;544846;-70
2024/03/10 15:56:50;;;;;;;11.70;6.90;;;;;;;;;;103884;1286;545562;-70
2024/03/10 16:00:29;;;;;;;13.50;7.20;;;;;;;;;;103476;1289;545040;-69
2024/03/10 16:04:06;;;;;;;12.70;7.00;;;;;;;;;;103429;1292;545067;-71
2024/03/10 16:07:43;;;;;;;15.00;8.90;;;;;;;;;;103740;1289;545456;-71
2024/03/10 16:11:19;;;;;;;12.70;7.20;;;;;;;;;;103583;1292;545959;-70
2024/03/10 16:14:57;;;;;;;10.80;6.30;;;;;;;;;;103637;1290;545060;-71
2024/03/10 16:18:36;;;;;;;10.70;5.80;;;;;;;;;;103706;1289;545409;-71
2024/03/10 16:22:13;;;;;;;9.90;5.20;;;;;;;;;;103528;1290;545678;-70
2024/03/10 16:25:49;;;;;;;9.80;4.90;;;;;;;;;;103705;1289;544784;-71
2024/03/10 16:29:27;;;;;;;9.30;4.80;;;;;;;;;;103722;1289;545389;-70
2024/03/10 16:33:04;;;;;;;10.20;4.50;;;;;;;;;;103707;1291;545110;-70
2024/03/10 16:36:43;;;;;;;9.20;4.90;;;;;;;;;;103963;1286;545421;-70
2024/03/10 16:40:19;;;;;;;9.00;4.90;;;;;;;;;;104602;1280;544769;-69
2024/03/10 16:44:03;;;;;;;10.10;5.00;;;;;;;;;;103547;1292;548903;-69
2024/03/10 16:47:35;;;;;;;10.00;5.20;;;;;;;;;;103683;1293;545362;-69
2024/03/10 16:51:14;;;;;;;8.80;4.60;;;;;;;;;;103687;1288;545429;-70
2024/03/10 16:54:50;;;;;;;9.80;5.00;;;;;;;;;;103581;1292;544782;-68
2024/03/10 16:58:27;;;;;;;9.60;5.10;;;;;;;;;;103529;1295;544748;-73
2024/03/10 17:02:04;;;;;;;10.80;5.30;;;;;;;;;;103616;1290;544976;-70
2024/03/10 17:05:53;;;;;;;10.20;5.60;;;;;;;;;;103621;1291;547952;-70
2024/03/10 17:09:22;;;;;;;9.90;5.50;;;;;;;;;;103599;1296;545842;-70
2024/03/10 17:12:56;;;;;;;10.60;5.60;;;;;;;;;;103774;1292;545215;-71
2024/03/10 17:16:34;;;;;;;9.80;5.20;;;;;;;;;;103622;1291;545455;-72
2024/03/10 17:20:12;;;;;;;9.70;5.50;;;;;;;;;;103594;1292;544941;-71
2024/03/10 17:23:49;;;;;;;10.30;5.50;;;;;;;;;;104087;1285;545421;-71
2024/03/10 17:27:27;;;;;;;10.20;4.70;;;;;;;;;;103617;1291;545777;-71
2024/03/10 17:31:04;;;;;;;10.40;5.10;;;;;;;;;;103902;1292;544963;-71
2024/03/10 17:34:42;;;;;;;9.60;5.40;;;;;;;;;;103659;1290;545503;-72
2024/03/10 17:38:24;;;;;;;12.50;5.90;;;;;;;;;;103885;1287;545339;-71
2024/03/10 17:41:58;;;;;;;13.20;5.60;;;;;;;;;;103724;1291;545425;-68
2024/03/10 17:45:34;;;;;;;10.20;5.80;;;;;;;;;;103343;1292;545521;-69
2024/03/10 17:49:08;;;;;;;10.40;5.60;;;;;;;;;;103794;1289;544777;-71
2024/03/10 17:52:54;;;;;;;11.20;5.60;;;;;;;;;;103753;1289;547987;-73
2024/03/10 17:56:26;;;;;;;11.80;5.50;;;;;;;;;;103656;1289;544746;-70
2024/03/10 18:00:05;;;;;;;11.90;6.00;;;;;;;;;;103799;1292;544984;-71
2024/03/10 18:03:42;;;;;;;11.20;5.70;;;;;;;;;;103789;1292;545409;-71
2024/03/10 18:07:18;;;;;;;11.80;6.30;;;;;;;;;;103528;1291;544758;-72
2024/03/10 18:10:57;;;;;;;11.90;6.10;;;;;;;;;;103554;1292;545525;-70
2024/03/10 18:14:35;;;;;;;11.20;6.10;;;;;;;;;;103433;1295;545554;-72
2024/03/10 18:18:11;;;;;;;12.30;5.90;;;;;;;;;;103734;1291;545235;-69
2024/03/10 18:21:56;;;;;;;13.70;7.00;;;;;;;;;;103867;1302;546098;-71
2024/03/10 18:25:28;;;;;;;12.40;7.30;;;;;;;;;;103806;1297;545709;-71
2024/03/10 18:29:05;;;;;;;13.80;7.70;;;;;;;;;;103635;1291;544934;-71
2024/03/10 18:32:38;;;;;;;13.60;8.20;;;;;;;;;;103928;1293;544927;-71
2024/03/10 18:36:19;;;;;;;12.90;8.10;;;;;;;;;;103497;1289;545707;-71
2024/03/10 18:39:56;;;;;;;14.80;8.20;;;;;;;;;;103603;1294;545541;-70
2024/03/10 18:43:33;;;;;;;14.50;8.30;;;;;;;;;;103421;1298;545610;-70
2024/03/10 18:47:07;;;;;;;15.10;8.40;;;;;;;;;;103739;1288;546238;-70
2024/03/10 18:50:48;;;;;;;17.70;11.40;;;;;;;;;;103608;1290;545757;-71
2024/03/10 18:54:25;;;;;;;18.40;11.60;;;;;;;;;;103595;1292;545088;-70
2024/03/10 18:58:03;;;;;;;18.90;12.60;;;;;;;;;;103765;1291;545286;-70
2024/03/10 19:01:47;;;;;;;19.70;13.20;;;;;;;;;;103257;1294;548007;-74
2024/03/10 19:05:18;;;;;;;18.00;12.40;;;;;;;;;;103526;1292;545428;-69
2024/03/10 19:09:27;;;;;;;;;;;;;;;;;;;;;
2024/03/10 19:12:33;;;;;;;19.60;12.50;;;;;;;;;;103579;1290;545464;-69
2024/03/10 19:16:11;;;;;;;18.10;12.10;;;;;;;;;;103225;1298;544937;-70
2024/03/10 19:19:44;;;;;;;19.90;11.90;;;;;;;;;;103784;1292;545413;-69
2024/03/10 19:23:26;;;;;;;19.30;11.80;;;;;;;;;;103716;1290;544875;-69
2024/03/10 19:27:03;;;;;;;18.60;10.70;;;;;;;;;;103538;1289;544753;-71
2024/03/10 19:30:41;;;;;;;14.40;6.80;;;;;;;;;;103552;1291;544946;-69
2024/03/10 19:34:19;;;;;;;12.80;6.40;;;;;;;;;;103226;1293;544988;-71
2024/03/10 19:38:02;;;;;;;13.30;7.00;;;;;;;;;;103384;1292;547799;-72
2024/03/10 19:41:32;;;;;;;11.70;6.30;;;;;;;;;;103518;1291;545126;-70
2024/03/10 19:45:11;;;;;;;11.50;6.10;;;;;;;;;;103610;1296;545383;-70
2024/03/10 19:48:44;;;;;;;12.10;6.10;;;;;;;;;;103741;1289;544756;-71
2024/03/10 19:52:25;;;;;;;13.20;7.00;;;;;;;;;;103789;1288;544937;-71
2024/03/10 19:56:03;;;;;;;13.20;6.80;;;;;;;;;;103557;1292;544876;-71
2024/03/10 19:59:41;;;;;;;12.20;7.10;;;;;;;;;;103614;1291;544817;-71
2024/03/10 20:03:17;;;;;;;13.00;6.70;;;;;;;;;;103487;1292;545650;-69
2024/03/10 20:07:03;;;;;;;11.80;7.20;;;;;;;;;;103511;1292;547912;-70
2024/03/10 20:10:32;;;;;;;13.30;7.00;;;;;;;;;;103518;1292;544843;-68
2024/03/10 20:14:16;;;;;;;11.60;6.80;;;;;;;;;;103369;1292;547788;-71
2024/03/10 20:17:47;;;;;;;11.70;6.50;;;;;;;;;;103555;1292;545033;-69
2024/03/10 20:21:27;;;;;;;13.20;7.00;;;;;;;;;;104113;1283;545401;-70
2024/03/10 20:25:07;;;;;;;12.50;7.10;;;;;;;;;;103565;1296;544976;-71
2024/03/10 20:28:40;;;;;;;13.80;7.10;;;;;;;;;;103651;1295;545386;-71
2024/03/10 20:32:18;;;;;;;11.50;6.90;;;;;;;;;;103570;1291;545053;-71
2024/03/10 20:35:55;;;;;;;11.10;6.30;;;;;;;;;;103552;1289;545053;-70
2024/03/10 20:39:33;;;;;;;13.40;7.50;;;;;;;;;;103593;1292;544973;-69
2024/03/10 20:43:10;;;;;;;14.80;7.50;;;;;;;;;;103628;1292;545259;-70
2024/03/10 20:46:47;;;;;;;13.00;6.30;;;;;;;;;;104160;1293;545953;-70
2024/03/10 20:50:25;;;;;;;12.80;6.60;;;;;;;;;;103557;1292;544824;-69
2024/03/10 20:54:03;;;;;;;12.70;6.80;;;;;;;;;;103429;1293;545018;-71
2024/03/10 20:57:41;;;;;;;11.60;6.60;;;;;;;;;;103864;1289;544851;-70
2024/03/10 21:01:20;;;;;;;13.20;8.50;;;;;;;;;;103524;1292;545623;-70